Breezy Hill, Louisiana
Current Conditions -  °F | °C
As of 7:53 PM on Thursday 20 Nov 2014 (Local Time) from KESF Reporting Station
Clear Clear  
Wind Chill: 52°   Ceiling: Unl
Heat Index: 52°   Visibility: 10mi
Dew Point: 48°   Wind: 3mph
Humidity: 86%   Direction: 170°S
Pressure: 30.16"   Gusts: NA
Location:  31.538°N, 92.3799°W
Report Text: KESF 210153Z AUTO 17003KT 10SM CLR 11/09 A3016 RMK AO2 SLP213 T01110089
Loading
Personal Weather Stations






























Interactive Weather Map New forecast layout! Learn more

10-Day Weather Forecast

Advertisements
Track Severe Weather on mobile